sensor_id;sensor_type;location;lat;lon;timestamp;P1;durP1;ratioP1;P2;durP2;ratioP2
3149;SDS011;32503;47.748;8.960;2024-02-16T00:01:01;14.83;;;10.27;;
3149;SDS011;32503;47.748;8.960;2024-02-16T00:03:28;15.80;;;11.90;;
3149;SDS011;32503;47.748;8.960;2024-02-16T00:05:55;15.53;;;9.87;;
3149;SDS011;32503;47.748;8.960;2024-02-16T00:08:22;12.70;;;10.90;;
3149;SDS011;32503;47.748;8.960;2024-02-16T00:10:50;16.33;;;10.40;;
3149;SDS011;32503;47.748;8.960;2024-02-16T00:13:17;13.50;;;10.67;;
3149;SDS011;32503;47.748;8.960;2024-02-16T00:15:44;13.53;;;10.37;;
3149;SDS011;32503;47.748;8.960;2024-02-16T00:18:12;11.67;;;9.73;;
3149;SDS011;32503;47.748;8.960;2024-02-16T00:20:39;11.90;;;10.10;;
3149;SDS011;32503;47.748;8.960;2024-02-16T00:23:06;12.83;;;9.90;;
3149;SDS011;32503;47.748;8.960;2024-02-16T00:25:34;13.87;;;9.43;;
3149;SDS011;32503;47.748;8.960;2024-02-16T00:28:01;12.50;;;10.43;;
3149;SDS011;32503;47.748;8.960;2024-02-16T00:30:29;10.87;;;9.87;;
3149;SDS011;32503;47.748;8.960;2024-02-16T00:32:56;10.03;;;9.03;;
3149;SDS011;32503;47.748;8.960;2024-02-16T00:35:24;11.60;;;10.07;;
3149;SDS011;32503;47.748;8.960;2024-02-16T00:37:51;12.33;;;10.30;;
3149;SDS011;32503;47.748;8.960;2024-02-16T00:40:18;12.60;;;9.27;;
3149;SDS011;32503;47.748;8.960;2024-02-16T00:42:45;12.93;;;9.60;;
3149;SDS011;32503;47.748;8.960;2024-02-16T00:45:12;30.70;;;14.33;;
3149;SDS011;32503;47.748;8.960;2024-02-16T00:47:39;23.50;;;15.40;;
3149;SDS011;32503;47.748;8.960;2024-02-16T00:50:07;23.13;;;16.00;;
3149;SDS011;32503;47.748;8.960;2024-02-16T00:52:36;26.90;;;15.00;;
3149;SDS011;32503;47.748;8.960;2024-02-16T00:55:04;17.63;;;13.17;;
3149;SDS011;32503;47.748;8.960;2024-02-16T00:57:32;17.60;;;13.77;;
3149;SDS011;32503;47.748;8.960;2024-02-16T00:59:59;17.20;;;11.90;;
3149;SDS011;32503;47.748;8.960;2024-02-16T01:02:28;17.10;;;11.63;;
3149;SDS011;32503;47.748;8.960;2024-02-16T01:04:56;13.27;;;10.80;;
3149;SDS011;32503;47.748;8.960;2024-02-16T01:07:27;12.97;;;10.30;;
3149;SDS011;32503;47.748;8.960;2024-02-16T01:09:55;15.73;;;11.53;;
3149;SDS011;32503;47.748;8.960;2024-02-16T01:12:22;14.40;;;10.83;;
3149;SDS011;32503;47.748;8.960;2024-02-16T01:14:49;14.07;;;10.40;;
3149;SDS011;32503;47.748;8.960;2024-02-16T01:17:16;13.57;;;11.60;;
3149;SDS011;32503;47.748;8.960;2024-02-16T01:19:43;12.70;;;11.40;;
3149;SDS011;32503;47.748;8.960;2024-02-16T01:22:12;13.23;;;10.67;;
3149;SDS011;32503;47.748;8.960;2024-02-16T01:24:39;14.83;;;11.47;;
3149;SDS011;32503;47.748;8.960;2024-02-16T01:27:08;14.03;;;12.60;;
3149;SDS011;32503;47.748;8.960;2024-02-16T01:29:36;16.07;;;10.93;;
3149;SDS011;32503;47.748;8.960;2024-02-16T01:32:03;15.77;;;12.13;;
3149;SDS011;32503;47.748;8.960;2024-02-16T01:34:30;17.90;;;12.90;;
3149;SDS011;32503;47.748;8.960;2024-02-16T01:36:57;13.90;;;10.77;;
3149;SDS011;32503;47.748;8.960;2024-02-16T01:39:25;15.10;;;10.47;;
3149;SDS011;32503;47.748;8.960;2024-02-16T01:41:52;10.83;;;9.53;;
3149;SDS011;32503;47.748;8.960;2024-02-16T01:44:19;10.83;;;9.73;;
3149;SDS011;32503;47.748;8.960;2024-02-16T01:46:46;12.07;;;8.67;;
3149;SDS011;32503;47.748;8.960;2024-02-16T01:49:13;14.57;;;10.40;;
3149;SDS011;32503;47.748;8.960;2024-02-16T01:51:41;10.67;;;9.57;;
3149;SDS011;32503;47.748;8.960;2024-02-16T01:54:10;9.13;;;8.37;;
3149;SDS011;32503;47.748;8.960;2024-02-16T01:56:38;9.03;;;8.10;;
3149;SDS011;32503;47.748;8.960;2024-02-16T01:59:05;9.17;;;8.27;;
3149;SDS011;32503;47.748;8.960;2024-02-16T02:01:33;8.50;;;7.60;;
3149;SDS011;32503;47.748;8.960;2024-02-16T02:04:00;13.17;;;9.87;;
3149;SDS011;32503;47.748;8.960;2024-02-16T02:06:28;14.50;;;9.00;;
3149;SDS011;32503;47.748;8.960;2024-02-16T02:08:55;9.43;;;8.53;;
3149;SDS011;32503;47.748;8.960;2024-02-16T02:11:22;12.37;;;9.63;;
3149;SDS011;32503;47.748;8.960;2024-02-16T02:13:49;11.63;;;8.90;;
3149;SDS011;32503;47.748;8.960;2024-02-16T02:16:16;9.57;;;8.63;;
3149;SDS011;32503;47.748;8.960;2024-02-16T02:18:48;11.20;;;10.07;;
3149;SDS011;32503;47.748;8.960;2024-02-16T02:21:15;10.00;;;9.10;;
3149;SDS011;32503;47.748;8.960;2024-02-16T02:23:44;9.83;;;8.83;;
3149;SDS011;32503;47.748;8.960;2024-02-16T02:26:13;10.47;;;9.43;;
3149;SDS011;32503;47.748;8.960;2024-02-16T02:28:41;9.27;;;8.23;;
3149;SDS011;32503;47.748;8.960;2024-02-16T02:31:08;10.40;;;8.00;;
3149;SDS011;32503;47.748;8.960;2024-02-16T02:33:35;8.57;;;7.80;;
3149;SDS011;32503;47.748;8.960;2024-02-16T02:36:03;8.97;;;7.60;;
3149;SDS011;32503;47.748;8.960;2024-02-16T02:38:32;9.70;;;8.00;;
3149;SDS011;32503;47.748;8.960;2024-02-16T02:41:01;8.83;;;8.00;;
3149;SDS011;32503;47.748;8.960;2024-02-16T02:43:28;7.47;;;6.87;;
3149;SDS011;32503;47.748;8.960;2024-02-16T02:45:55;7.20;;;6.57;;
3149;SDS011;32503;47.748;8.960;2024-02-16T02:48:22;11.07;;;8.27;;
3149;SDS011;32503;47.748;8.960;2024-02-16T02:50:50;11.63;;;8.40;;
3149;SDS011;32503;47.748;8.960;2024-02-16T02:53:17;7.67;;;6.93;;
3149;SDS011;32503;47.748;8.960;2024-02-16T02:55:44;8.57;;;7.67;;
3149;SDS011;32503;47.748;8.960;2024-02-16T02:58:12;9.07;;;7.60;;
3149;SDS011;32503;47.748;8.960;2024-02-16T03:00:39;7.33;;;6.57;;
3149;SDS011;32503;47.748;8.960;2024-02-16T03:03:06;8.57;;;7.47;;
3149;SDS011;32503;47.748;8.960;2024-02-16T03:05:33;9.07;;;6.67;;
3149;SDS011;32503;47.748;8.960;2024-02-16T03:08:00;9.23;;;7.10;;
3149;SDS011;32503;47.748;8.960;2024-02-16T03:10:27;9.30;;;7.97;;
3149;SDS011;32503;47.748;8.960;2024-02-16T03:12:59;8.40;;;7.20;;
3149;SDS011;32503;47.748;8.960;2024-02-16T03:15:29;7.13;;;6.63;;
3149;SDS011;32503;47.748;8.960;2024-02-16T03:17:56;8.93;;;8.13;;
3149;SDS011;32503;47.748;8.960;2024-02-16T03:20:23;8.33;;;7.70;;
3149;SDS011;32503;47.748;8.960;2024-02-16T03:22:50;7.43;;;6.60;;
3149;SDS011;32503;47.748;8.960;2024-02-16T03:25:17;7.20;;;6.60;;
3149;SDS011;32503;47.748;8.960;2024-02-16T03:27:45;7.70;;;6.60;;
3149;SDS011;32503;47.748;8.960;2024-02-16T03:30:12;8.23;;;7.27;;
3149;SDS011;32503;47.748;8.960;2024-02-16T03:32:40;9.53;;;7.00;;
3149;SDS011;32503;47.748;8.960;2024-02-16T03:35:07;8.43;;;6.83;;
3149;SDS011;32503;47.748;8.960;2024-02-16T03:37:35;8.97;;;8.00;;
3149;SDS011;32503;47.748;8.960;2024-02-16T03:40:05;10.80;;;7.10;;
3149;SDS011;32503;47.748;8.960;2024-02-16T03:42:34;7.93;;;7.13;;
3149;SDS011;32503;47.748;8.960;2024-02-16T03:45:02;8.93;;;7.93;;
3149;SDS011;32503;47.748;8.960;2024-02-16T03:47:29;8.03;;;7.30;;
3149;SDS011;32503;47.748;8.960;2024-02-16T03:49:58;7.00;;;6.50;;
3149;SDS011;32503;47.748;8.960;2024-02-16T03:52:25;8.60;;;7.90;;
3149;SDS011;32503;47.748;8.960;2024-02-16T03:54:51;9.10;;;7.73;;
3149;SDS011;32503;47.748;8.960;2024-02-16T03:57:19;8.10;;;7.40;;
3149;SDS011;32503;47.748;8.960;2024-02-16T03:59:46;8.77;;;7.67;;
3149;SDS011;32503;47.748;8.960;2024-02-16T04:02:13;9.77;;;8.00;;
3149;SDS011;32503;47.748;8.960;2024-02-16T04:04:40;9.20;;;8.30;;
3149;SDS011;32503;47.748;8.960;2024-02-16T04:07:08;8.73;;;7.47;;
3149;SDS011;32503;47.748;8.960;2024-02-16T04:09:35;7.40;;;6.67;;
3149;SDS011;32503;47.748;8.960;2024-02-16T04:12:02;8.40;;;7.60;;
3149;SDS011;32503;47.748;8.960;2024-02-16T04:14:30;7.63;;;7.00;;
3149;SDS011;32503;47.748;8.960;2024-02-16T04:16:58;8.00;;;7.20;;
3149;SDS011;32503;47.748;8.960;2024-02-16T04:19:25;10.10;;;8.10;;
3149;SDS011;32503;47.748;8.960;2024-02-16T04:21:52;8.60;;;7.63;;
3149;SDS011;32503;47.748;8.960;2024-02-16T04:24:21;8.10;;;7.40;;
3149;SDS011;32503;47.748;8.960;2024-02-16T04:26:48;8.33;;;7.63;;
3149;SDS011;32503;47.748;8.960;2024-02-16T04:29:15;8.03;;;7.13;;
3149;SDS011;32503;47.748;8.960;2024-02-16T04:31:42;9.50;;;8.07;;
3149;SDS011;32503;47.748;8.960;2024-02-16T04:34:10;8.10;;;7.30;;
3149;SDS011;32503;47.748;8.960;2024-02-16T04:36:38;8.17;;;7.27;;
3149;SDS011;32503;47.748;8.960;2024-02-16T04:39:05;8.27;;;7.23;;
3149;SDS011;32503;47.748;8.960;2024-02-16T04:41:33;8.30;;;7.57;;
3149;SDS011;32503;47.748;8.960;2024-02-16T04:44:00;9.30;;;7.23;;
3149;SDS011;32503;47.748;8.960;2024-02-16T04:46:27;11.93;;;7.70;;
3149;SDS011;32503;47.748;8.960;2024-02-16T04:48:54;7.63;;;6.77;;
3149;SDS011;32503;47.748;8.960;2024-02-16T04:51:22;8.47;;;7.57;;
3149;SDS011;32503;47.748;8.960;2024-02-16T04:53:49;8.00;;;7.40;;
3149;SDS011;32503;47.748;8.960;2024-02-16T04:56:16;8.50;;;7.73;;
3149;SDS011;32503;47.748;8.960;2024-02-16T04:58:44;8.80;;;7.17;;
3149;SDS011;32503;47.748;8.960;2024-02-16T05:01:12;8.93;;;8.13;;
3149;SDS011;32503;47.748;8.960;2024-02-16T05:03:39;9.17;;;8.27;;
3149;SDS011;32503;47.748;8.960;2024-02-16T05:06:06;11.90;;;7.80;;
3149;SDS011;32503;47.748;8.960;2024-02-16T05:08:33;8.93;;;8.20;;
3149;SDS011;32503;47.748;8.960;2024-02-16T05:11:00;8.33;;;7.13;;
3149;SDS011;32503;47.748;8.960;2024-02-16T05:13:28;9.07;;;7.97;;
3149;SDS011;32503;47.748;8.960;2024-02-16T05:15:56;10.10;;;8.90;;
3149;SDS011;32503;47.748;8.960;2024-02-16T05:18:23;9.00;;;8.40;;
3149;SDS011;32503;47.748;8.960;2024-02-16T05:20:50;10.40;;;7.77;;
3149;SDS011;32503;47.748;8.960;2024-02-16T05:23:17;13.50;;;8.53;;
3149;SDS011;32503;47.748;8.960;2024-02-16T05:25:44;11.07;;;8.97;;
3149;SDS011;32503;47.748;8.960;2024-02-16T05:28:11;8.40;;;7.60;;
3149;SDS011;32503;47.748;8.960;2024-02-16T05:30:39;12.60;;;9.33;;
3149;SDS011;32503;47.748;8.960;2024-02-16T05:33:07;10.00;;;8.57;;
3149;SDS011;32503;47.748;8.960;2024-02-16T05:35:34;9.00;;;7.83;;
3149;SDS011;32503;47.748;8.960;2024-02-16T05:38:05;14.67;;;8.80;;
3149;SDS011;32503;47.748;8.960;2024-02-16T05:40:45;13.30;;;9.60;;
3149;SDS011;32503;47.748;8.960;2024-02-16T05:43:18;9.73;;;8.27;;
3149;SDS011;32503;47.748;8.960;2024-02-16T05:45:45;8.83;;;8.13;;
3149;SDS011;32503;47.748;8.960;2024-02-16T05:48:14;13.13;;;8.07;;
3149;SDS011;32503;47.748;8.960;2024-02-16T05:50:41;12.33;;;9.60;;
3149;SDS011;32503;47.748;8.960;2024-02-16T05:53:09;11.37;;;8.57;;
3149;SDS011;32503;47.748;8.960;2024-02-16T05:55:36;10.20;;;8.70;;
3149;SDS011;32503;47.748;8.960;2024-02-16T05:58:03;11.83;;;8.87;;
3149;SDS011;32503;47.748;8.960;2024-02-16T06:00:33;10.60;;;7.87;;
3149;SDS011;32503;47.748;8.960;2024-02-16T06:03:01;10.87;;;8.47;;
3149;SDS011;32503;47.748;8.960;2024-02-16T06:05:30;11.67;;;7.57;;
3149;SDS011;32503;47.748;8.960;2024-02-16T06:07:58;9.13;;;7.90;;
3149;SDS011;32503;47.748;8.960;2024-02-16T06:10:25;9.60;;;7.80;;
3149;SDS011;32503;47.748;8.960;2024-02-16T06:12:52;8.83;;;8.07;;
3149;SDS011;32503;47.748;8.960;2024-02-16T06:15:19;12.47;;;9.20;;
3149;SDS011;32503;47.748;8.960;2024-02-16T06:17:47;12.00;;;9.57;;
3149;SDS011;32503;47.748;8.960;2024-02-16T06:20:16;10.40;;;9.00;;
3149;SDS011;32503;47.748;8.960;2024-02-16T06:22:44;9.40;;;8.50;;
3149;SDS011;32503;47.748;8.960;2024-02-16T06:25:11;14.30;;;9.67;;
3149;SDS011;32503;47.748;8.960;2024-02-16T06:27:38;10.60;;;9.50;;
3149;SDS011;32503;47.748;8.960;2024-02-16T06:30:06;11.07;;;9.50;;
3149;SDS011;32503;47.748;8.960;2024-02-16T06:32:37;10.90;;;9.40;;
3149;SDS011;32503;47.748;8.960;2024-02-16T06:35:06;10.70;;;9.57;;
3149;SDS011;32503;47.748;8.960;2024-02-16T06:37:34;9.50;;;8.53;;
3149;SDS011;32503;47.748;8.960;2024-02-16T06:40:04;12.60;;;9.60;;
3149;SDS011;32503;47.748;8.960;2024-02-16T06:42:34;9.83;;;8.83;;
3149;SDS011;32503;47.748;8.960;2024-02-16T06:45:01;9.90;;;8.93;;
3149;SDS011;32503;47.748;8.960;2024-02-16T06:47:30;9.90;;;9.00;;
3149;SDS011;32503;47.748;8.960;2024-02-16T06:49:57;11.70;;;9.67;;
3149;SDS011;32503;47.748;8.960;2024-02-16T06:52:24;13.70;;;10.17;;
3149;SDS011;32503;47.748;8.960;2024-02-16T06:54:51;10.27;;;9.37;;
3149;SDS011;32503;47.748;8.960;2024-02-16T06:57:19;8.90;;;7.97;;
3149;SDS011;32503;47.748;8.960;2024-02-16T06:59:46;11.40;;;9.20;;
3149;SDS011;32503;47.748;8.960;2024-02-16T07:02:14;9.07;;;8.20;;
3149;SDS011;32503;47.748;8.960;2024-02-16T07:04:43;8.77;;;7.97;;
3149;SDS011;32503;47.748;8.960;2024-02-16T07:07:10;9.37;;;8.47;;
3149;SDS011;32503;47.748;8.960;2024-02-16T07:09:37;10.47;;;9.50;;
3149;SDS011;32503;47.748;8.960;2024-02-16T07:12:05;10.97;;;9.97;;
3149;SDS011;32503;47.748;8.960;2024-02-16T07:14:34;16.47;;;13.67;;
3149;SDS011;32503;47.748;8.960;2024-02-16T07:17:01;13.83;;;11.60;;
3149;SDS011;32503;47.748;8.960;2024-02-16T07:19:29;11.67;;;10.47;;
3149;SDS011;32503;47.748;8.960;2024-02-16T07:21:56;12.87;;;11.00;;
3149;SDS011;32503;47.748;8.960;2024-02-16T07:24:23;14.03;;;10.00;;
3149;SDS011;32503;47.748;8.960;2024-02-16T07:26:50;9.60;;;8.80;;
3149;SDS011;32503;47.748;8.960;2024-02-16T07:29:18;9.23;;;8.43;;
3149;SDS011;32503;47.748;8.960;2024-02-16T07:31:46;10.77;;;8.77;;
3149;SDS011;32503;47.748;8.960;2024-02-16T07:34:16;12.60;;;8.80;;
3149;SDS011;32503;47.748;8.960;2024-02-16T07:36:43;8.60;;;7.50;;
3149;SDS011;32503;47.748;8.960;2024-02-16T07:39:10;12.80;;;10.40;;
3149;SDS011;32503;47.748;8.960;2024-02-16T07:41:37;14.57;;;8.97;;
3149;SDS011;32503;47.748;8.960;2024-02-16T07:44:05;8.30;;;7.50;;
3149;SDS011;32503;47.748;8.960;2024-02-16T07:46:32;8.57;;;7.73;;
3149;SDS011;32503;47.748;8.960;2024-02-16T07:49:00;9.60;;;8.63;;
3149;SDS011;32503;47.748;8.960;2024-02-16T07:51:29;13.03;;;9.40;;
3149;SDS011;32503;47.748;8.960;2024-02-16T07:53:56;11.87;;;10.67;;
3149;SDS011;32503;47.748;8.960;2024-02-16T07:56:23;11.13;;;10.00;;
3149;SDS011;32503;47.748;8.960;2024-02-16T07:58:50;13.40;;;11.97;;
3149;SDS011;32503;47.748;8.960;2024-02-16T08:01:17;11.67;;;9.50;;
3149;SDS011;32503;47.748;8.960;2024-02-16T08:03:45;11.80;;;10.60;;
3149;SDS011;32503;47.748;8.960;2024-02-16T08:06:13;10.17;;;9.10;;
3149;SDS011;32503;47.748;8.960;2024-02-16T08:08:41;10.80;;;9.37;;
3149;SDS011;32503;47.748;8.960;2024-02-16T08:11:08;9.47;;;8.60;;
3149;SDS011;32503;47.748;8.960;2024-02-16T08:13:35;9.77;;;8.93;;
3149;SDS011;32503;47.748;8.960;2024-02-16T08:16:02;10.50;;;9.50;;
3149;SDS011;32503;47.748;8.960;2024-02-16T08:18:32;10.97;;;9.90;;
3149;SDS011;32503;47.748;8.960;2024-02-16T08:20:59;10.70;;;9.80;;
3149;SDS011;32503;47.748;8.960;2024-02-16T08:23:27;10.37;;;9.30;;
3149;SDS011;32503;47.748;8.960;2024-02-16T08:25:55;13.07;;;9.97;;
3149;SDS011;32503;47.748;8.960;2024-02-16T08:28:23;11.90;;;10.43;;
3149;SDS011;32503;47.748;8.960;2024-02-16T08:30:50;13.87;;;10.20;;
3149;SDS011;32503;47.748;8.960;2024-02-16T08:33:17;14.40;;;12.17;;
3149;SDS011;32503;47.748;8.960;2024-02-16T08:35:44;13.13;;;11.43;;
3149;SDS011;32503;47.748;8.960;2024-02-16T08:38:11;14.73;;;12.43;;
3149;SDS011;32503;47.748;8.960;2024-02-16T08:40:40;15.33;;;11.97;;
3149;SDS011;32503;47.748;8.960;2024-02-16T08:43:07;13.83;;;12.30;;
3149;SDS011;32503;47.748;8.960;2024-02-16T08:45:34;12.30;;;11.10;;
3149;SDS011;32503;47.748;8.960;2024-02-16T08:48:02;12.37;;;11.20;;
3149;SDS011;32503;47.748;8.960;2024-02-16T08:50:29;13.27;;;11.10;;
3149;SDS011;32503;47.748;8.960;2024-02-16T08:52:56;13.20;;;11.70;;
3149;SDS011;32503;47.748;8.960;2024-02-16T08:55:23;16.70;;;11.33;;
3149;SDS011;32503;47.748;8.960;2024-02-16T08:57:52;13.40;;;10.40;;
3149;SDS011;32503;47.748;8.960;2024-02-16T09:00:19;14.03;;;10.60;;
3149;SDS011;32503;47.748;8.960;2024-02-16T09:02:48;13.47;;;11.57;;
3149;SDS011;32503;47.748;8.960;2024-02-16T09:05:15;12.37;;;11.07;;
3149;SDS011;32503;47.748;8.960;2024-02-16T09:07:42;12.20;;;11.10;;
3149;SDS011;32503;47.748;8.960;2024-02-16T09:10:09;12.67;;;11.33;;
3149;SDS011;32503;47.748;8.960;2024-02-16T09:12:36;12.53;;;11.33;;
3149;SDS011;32503;47.748;8.960;2024-02-16T09:15:05;12.70;;;11.50;;
3149;SDS011;32503;47.748;8.960;2024-02-16T09:17:33;13.57;;;11.03;;
3149;SDS011;32503;47.748;8.960;2024-02-16T09:20:00;16.13;;;11.43;;
3149;SDS011;32503;47.748;8.960;2024-02-16T09:22:29;16.13;;;11.77;;
3149;SDS011;32503;47.748;8.960;2024-02-16T09:24:56;12.07;;;10.97;;
3149;SDS011;32503;47.748;8.960;2024-02-16T09:27:24;11.77;;;10.77;;
3149;SDS011;32503;47.748;8.960;2024-02-16T09:29:52;11.87;;;10.87;;
3149;SDS011;32503;47.748;8.960;2024-02-16T09:32:20;12.13;;;10.90;;
3149;SDS011;32503;47.748;8.960;2024-02-16T09:34:47;11.50;;;10.30;;
3149;SDS011;32503;47.748;8.960;2024-02-16T09:37:16;13.17;;;11.60;;
3149;SDS011;32503;47.748;8.960;2024-02-16T09:39:43;11.50;;;10.30;;
3149;SDS011;32503;47.748;8.960;2024-02-16T09:42:10;11.73;;;10.53;;
3149;SDS011;32503;47.748;8.960;2024-02-16T09:44:39;14.33;;;11.37;;
3149;SDS011;32503;47.748;8.960;2024-02-16T09:47:07;11.10;;;10.00;;
3149;SDS011;32503;47.748;8.960;2024-02-16T09:49:39;12.80;;;11.50;;
3149;SDS011;32503;47.748;8.960;2024-02-16T09:52:07;16.00;;;10.73;;
3149;SDS011;32503;47.748;8.960;2024-02-16T09:54:37;10.23;;;9.27;;
3149;SDS011;32503;47.748;8.960;2024-02-16T09:57:05;12.20;;;10.70;;
3149;SDS011;32503;47.748;8.960;2024-02-16T09:59:32;13.13;;;11.13;;
3149;SDS011;32503;47.748;8.960;2024-02-16T10:02:00;16.40;;;11.57;;
3149;SDS011;32503;47.748;8.960;2024-02-16T10:04:27;11.50;;;10.40;;
3149;SDS011;32503;47.748;8.960;2024-02-16T10:06:56;11.20;;;10.30;;
3149;SDS011;32503;47.748;8.960;2024-02-16T10:09:23;11.70;;;10.60;;
3149;SDS011;32503;47.748;8.960;2024-02-16T10:11:51;11.97;;;10.83;;
3149;SDS011;32503;47.748;8.960;2024-02-16T10:14:18;10.03;;;9.13;;
3149;SDS011;32503;47.748;8.960;2024-02-16T10:16:45;10.73;;;9.73;;
3149;SDS011;32503;47.748;8.960;2024-02-16T10:19:13;10.83;;;9.83;;
3149;SDS011;32503;47.748;8.960;2024-02-16T10:21:43;10.00;;;9.20;;
3149;SDS011;32503;47.748;8.960;2024-02-16T10:24:12;9.57;;;8.57;;
3149;SDS011;32503;47.748;8.960;2024-02-16T10:26:39;11.53;;;10.60;;
3149;SDS011;32503;47.748;8.960;2024-02-16T10:29:08;13.50;;;10.73;;
3149;SDS011;32503;47.748;8.960;2024-02-16T10:31:38;10.90;;;9.90;;
3149;SDS011;32503;47.748;8.960;2024-02-16T10:34:06;12.30;;;11.10;;
3149;SDS011;32503;47.748;8.960;2024-02-16T10:36:35;11.30;;;10.20;;
3149;SDS011;32503;47.748;8.960;2024-02-16T10:39:03;11.67;;;10.57;;
3149;SDS011;32503;47.748;8.960;2024-02-16T10:41:34;10.77;;;9.67;;
3149;SDS011;32503;47.748;8.960;2024-02-16T10:44:04;11.17;;;10.03;;
3149;SDS011;32503;47.748;8.960;2024-02-16T10:46:31;10.60;;;9.67;;
3149;SDS011;32503;47.748;8.960;2024-02-16T10:48:59;10.20;;;9.27;;
3149;SDS011;32503;47.748;8.960;2024-02-16T10:51:30;9.50;;;8.70;;
3149;SDS011;32503;47.748;8.960;2024-02-16T10:54:03;9.50;;;8.70;;
3149;SDS011;32503;47.748;8.960;2024-02-16T10:56:32;9.40;;;8.60;;
3149;SDS011;32503;47.748;8.960;2024-02-16T10:59:02;10.50;;;9.60;;
3149;SDS011;32503;47.748;8.960;2024-02-16T11:01:36;8.80;;;8.00;;
3149;SDS011;32503;47.748;8.960;2024-02-16T11:04:05;8.00;;;7.40;;
3149;SDS011;32503;47.748;8.960;2024-02-16T11:06:46;13.93;;;8.77;;
3149;SDS011;32503;47.748;8.960;2024-02-16T11:09:27;8.87;;;8.20;;
3149;SDS011;32503;47.748;8.960;2024-02-16T11:11:58;8.40;;;7.80;;
3149;SDS011;32503;47.748;8.960;2024-02-16T11:14:34;9.17;;;8.37;;
3149;SDS011;32503;47.748;8.960;2024-02-16T11:17:02;8.13;;;7.53;;
3149;SDS011;32503;47.748;8.960;2024-02-16T11:19:35;8.77;;;8.10;;
3149;SDS011;32503;47.748;8.960;2024-02-16T11:22:03;8.37;;;7.57;;
3149;SDS011;32503;47.748;8.960;2024-02-16T11:24:33;8.10;;;7.30;;
3149;SDS011;32503;47.748;8.960;2024-02-16T11:27:03;6.90;;;6.20;;
3149;SDS011;32503;47.748;8.960;2024-02-16T11:29:32;7.20;;;6.57;;
3149;SDS011;32503;47.748;8.960;2024-02-16T11:32:02;8.17;;;7.37;;
3149;SDS011;32503;47.748;8.960;2024-02-16T11:34:30;10.40;;;8.83;;
3149;SDS011;32503;47.748;8.960;2024-02-16T11:36:59;8.53;;;7.73;;
3149;SDS011;32503;47.748;8.960;2024-02-16T11:39:27;9.73;;;6.93;;
3149;SDS011;32503;47.748;8.960;2024-02-16T11:42:00;7.07;;;6.53;;
3149;SDS011;32503;47.748;8.960;2024-02-16T11:44:29;8.93;;;8.13;;
3149;SDS011;32503;47.748;8.960;2024-02-16T11:46:58;7.60;;;6.57;;
3149;SDS011;32503;47.748;8.960;2024-02-16T11:49:28;7.87;;;7.33;;
3149;SDS011;32503;47.748;8.960;2024-02-16T11:51:55;8.17;;;6.30;;
3149;SDS011;32503;47.748;8.960;2024-02-16T11:54:25;6.53;;;6.03;;
3149;SDS011;32503;47.748;8.960;2024-02-16T11:59:04;7.00;;;6.30;;
3149;SDS011;32503;47.748;8.960;2024-02-16T12:01:32;6.20;;;5.80;;
3149;SDS011;32503;47.748;8.960;2024-02-16T12:04:00;7.10;;;6.50;;
3149;SDS011;32503;47.748;8.960;2024-02-16T12:06:28;5.80;;;5.40;;
3149;SDS011;32503;47.748;8.960;2024-02-16T12:08:56;9.27;;;5.20;;
3149;SDS011;32503;47.748;8.960;2024-02-16T12:11:23;4.60;;;4.30;;
3149;SDS011;32503;47.748;8.960;2024-02-16T12:13:50;5.10;;;4.60;;
3149;SDS011;32503;47.748;8.960;2024-02-16T12:16:19;5.40;;;4.97;;
3149;SDS011;32503;47.748;8.960;2024-02-16T12:18:46;4.87;;;4.23;;
3149;SDS011;32503;47.748;8.960;2024-02-16T12:21:17;4.60;;;4.37;;
3149;SDS011;32503;47.748;8.960;2024-02-16T12:23:45;5.10;;;4.70;;
3149;SDS011;32503;47.748;8.960;2024-02-16T12:26:12;5.70;;;4.80;;
3149;SDS011;32503;47.748;8.960;2024-02-16T12:28:40;5.00;;;4.70;;
3149;SDS011;32503;47.748;8.960;2024-02-16T12:31:07;5.47;;;5.07;;
3149;SDS011;32503;47.748;8.960;2024-02-16T12:33:36;5.30;;;5.00;;
3149;SDS011;32503;47.748;8.960;2024-02-16T12:36:03;5.90;;;5.40;;
3149;SDS011;32503;47.748;8.960;2024-02-16T12:38:31;5.07;;;4.70;;
3149;SDS011;32503;47.748;8.960;2024-02-16T12:40:58;6.03;;;5.53;;
3149;SDS011;32503;47.748;8.960;2024-02-16T12:43:25;5.03;;;4.23;;
3149;SDS011;32503;47.748;8.960;2024-02-16T12:45:52;4.57;;;4.37;;
3149;SDS011;32503;47.748;8.960;2024-02-16T12:48:20;5.30;;;5.00;;
3149;SDS011;32503;47.748;8.960;2024-02-16T12:50:48;4.20;;;3.93;;
3149;SDS011;32503;47.748;8.960;2024-02-16T12:53:17;3.30;;;3.10;;
3149;SDS011;32503;47.748;8.960;2024-02-16T12:55:45;3.40;;;3.20;;
3149;SDS011;32503;47.748;8.960;2024-02-16T12:58:13;3.83;;;3.20;;
3149;SDS011;32503;47.748;8.960;2024-02-16T13:00:40;3.53;;;3.23;;
3149;SDS011;32503;47.748;8.960;2024-02-16T13:03:07;3.60;;;3.30;;
3149;SDS011;32503;47.748;8.960;2024-02-16T13:05:34;3.40;;;3.20;;
3149;SDS011;32503;47.748;8.960;2024-02-16T13:08:03;2.83;;;2.63;;
3149;SDS011;32503;47.748;8.960;2024-02-16T13:10:31;2.70;;;2.50;;
3149;SDS011;32503;47.748;8.960;2024-02-16T13:12:58;2.50;;;2.40;;
3149;SDS011;32503;47.748;8.960;2024-02-16T13:15:25;2.70;;;2.50;;
3149;SDS011;32503;47.748;8.960;2024-02-16T13:17:52;2.97;;;2.77;;
3149;SDS011;32503;47.748;8.960;2024-02-16T13:20:19;3.33;;;2.30;;
3149;SDS011;32503;47.748;8.960;2024-02-16T13:22:46;3.50;;;3.30;;
3149;SDS011;32503;47.748;8.960;2024-02-16T13:25:14;5.43;;;2.40;;
3149;SDS011;32503;47.748;8.960;2024-02-16T13:27:41;2.23;;;2.03;;
3149;SDS011;32503;47.748;8.960;2024-02-16T13:30:09;2.60;;;2.50;;
3149;SDS011;32503;47.748;8.960;2024-02-16T13:32:37;3.33;;;2.20;;
3149;SDS011;32503;47.748;8.960;2024-02-16T13:35:05;2.60;;;1.97;;
3149;SDS011;32503;47.748;8.960;2024-02-16T13:37:33;3.80;;;2.03;;
3149;SDS011;32503;47.748;8.960;2024-02-16T13:40:00;1.63;;;1.53;;
3149;SDS011;32503;47.748;8.960;2024-02-16T13:42:30;2.23;;;2.03;;
3149;SDS011;32503;47.748;8.960;2024-02-16T13:44:57;2.07;;;1.87;;
3149;SDS011;32503;47.748;8.960;2024-02-16T13:47:25;3.10;;;2.00;;
3149;SDS011;32503;47.748;8.960;2024-02-16T13:49:52;3.00;;;2.10;;
3149;SDS011;32503;47.748;8.960;2024-02-16T13:52:21;3.57;;;1.97;;
3149;SDS011;32503;47.748;8.960;2024-02-16T13:54:49;2.93;;;2.63;;
3149;SDS011;32503;47.748;8.960;2024-02-16T13:57:16;2.07;;;1.90;;
3149;SDS011;32503;47.748;8.960;2024-02-16T13:59:45;4.27;;;2.47;;
3149;SDS011;32503;47.748;8.960;2024-02-16T14:02:12;2.20;;;2.10;;
3149;SDS011;32503;47.748;8.960;2024-02-16T14:04:40;1.60;;;1.50;;
3149;SDS011;32503;47.748;8.960;2024-02-16T14:07:07;2.40;;;2.20;;
3149;SDS011;32503;47.748;8.960;2024-02-16T14:09:35;1.90;;;1.80;;
3149;SDS011;32503;47.748;8.960;2024-02-16T14:12:02;1.90;;;1.47;;
3149;SDS011;32503;47.748;8.960;2024-02-16T14:14:30;1.93;;;1.83;;
3149;SDS011;32503;47.748;8.960;2024-02-16T14:16:58;3.87;;;2.20;;
3149;SDS011;32503;47.748;8.960;2024-02-16T14:19:26;2.03;;;1.93;;
3149;SDS011;32503;47.748;8.960;2024-02-16T14:21:53;1.97;;;1.83;;
3149;SDS011;32503;47.748;8.960;2024-02-16T14:24:20;3.03;;;2.43;;
3149;SDS011;32503;47.748;8.960;2024-02-16T14:26:47;1.60;;;1.50;;
3149;SDS011;32503;47.748;8.960;2024-02-16T14:29:14;2.10;;;2.00;;
3149;SDS011;32503;47.748;8.960;2024-02-16T14:31:41;2.10;;;1.77;;
3149;SDS011;32503;47.748;8.960;2024-02-16T14:34:10;2.67;;;2.47;;
3149;SDS011;32503;47.748;8.960;2024-02-16T14:36:37;2.00;;;1.90;;
3149;SDS011;32503;47.748;8.960;2024-02-16T14:39:04;2.23;;;2.03;;
3149;SDS011;32503;47.748;8.960;2024-02-16T14:41:31;2.60;;;2.50;;
3149;SDS011;32503;47.748;8.960;2024-02-16T14:43:58;2.20;;;2.00;;
3149;SDS011;32503;47.748;8.960;2024-02-16T14:46:25;3.53;;;2.00;;
3149;SDS011;32503;47.748;8.960;2024-02-16T14:48:53;2.03;;;1.93;;
3149;SDS011;32503;47.748;8.960;2024-02-16T14:51:21;2.60;;;2.50;;
3149;SDS011;32503;47.748;8.960;2024-02-16T14:53:48;2.60;;;1.80;;
3149;SDS011;32503;47.748;8.960;2024-02-16T14:56:15;1.63;;;1.53;;